sensor_id;sensor_type;location;lat;lon;timestamp;temperature;humidity
13310;DHT22;6723;48.256;16.402;2024-03-22T00:02:15;12.20;99.90
13310;DHT22;6723;48.256;16.402;2024-03-22T00:04:41;12.20;99.90
13310;DHT22;6723;48.256;16.402;2024-03-22T00:07:07;12.20;99.90
13310;DHT22;6723;48.256;16.402;2024-03-22T00:09:32;12.20;99.90
13310;DHT22;6723;48.256;16.402;2024-03-22T00:11:59;12.20;99.90
13310;DHT22;6723;48.256;16.402;2024-03-22T00:14:25;12.30;99.90
13310;DHT22;6723;48.256;16.402;2024-03-22T00:16:50;12.30;99.90
13310;DHT22;6723;48.256;16.402;2024-03-22T00:19:16;12.40;99.90
13310;DHT22;6723;48.256;16.402;2024-03-22T00:21:42;12.40;99.90
13310;DHT22;6723;48.256;16.402;2024-03-22T00:24:08;12.40;99.90
13310;DHT22;6723;48.256;16.402;2024-03-22T00:26:34;12.40;99.90
13310;DHT22;6723;48.256;16.402;2024-03-22T00:28:59;12.40;99.90
13310;DHT22;6723;48.256;16.402;2024-03-22T00:31:25;12.40;99.90
13310;DHT22;6723;48.256;16.402;2024-03-22T00:33:51;12.40;99.90
13310;DHT22;6723;48.256;16.402;2024-03-22T00:36:17;12.40;99.90
13310;DHT22;6723;48.256;16.402;2024-03-22T00:38:43;12.40;99.90
13310;DHT22;6723;48.256;16.402;2024-03-22T00:41:08;12.50;99.90
13310;DHT22;6723;48.256;16.402;2024-03-22T00:43:34;12.50;99.90
13310;DHT22;6723;48.256;16.402;2024-03-22T00:46:00;12.50;99.90
13310;DHT22;6723;48.256;16.402;2024-03-22T00:48:28;12.40;99.90
13310;DHT22;6723;48.256;16.402;2024-03-22T00:50:54;12.40;99.90
13310;DHT22;6723;48.256;16.402;2024-03-22T00:53:20;12.40;99.90
13310;DHT22;6723;48.256;16.402;2024-03-22T00:55:46;12.40;99.90
13310;DHT22;6723;48.256;16.402;2024-03-22T00:58:19;12.40;99.90
13310;DHT22;6723;48.256;16.402;2024-03-22T01:00:46;12.40;99.90
13310;DHT22;6723;48.256;16.402;2024-03-22T01:03:12;12.40;99.90
13310;DHT22;6723;48.256;16.402;2024-03-22T01:05:41;12.40;99.90
13310;DHT22;6723;48.256;16.402;2024-03-22T01:08:07;12.50;99.90
13310;DHT22;6723;48.256;16.402;2024-03-22T01:10:34;12.50;99.90
13310;DHT22;6723;48.256;16.402;2024-03-22T01:13:00;12.40;99.90
13310;DHT22;6723;48.256;16.402;2024-03-22T01:15:26;12.50;99.90
13310;DHT22;6723;48.256;16.402;2024-03-22T01:17:53;12.40;99.90
13310;DHT22;6723;48.256;16.402;2024-03-22T01:20:19;12.40;99.90
13310;DHT22;6723;48.256;16.402;2024-03-22T01:22:45;12.40;99.90
13310;DHT22;6723;48.256;16.402;2024-03-22T01:25:13;12.40;99.90
13310;DHT22;6723;48.256;16.402;2024-03-22T01:27:39;12.40;99.90
13310;DHT22;6723;48.256;16.402;2024-03-22T01:30:05;12.40;99.90
13310;DHT22;6723;48.256;16.402;2024-03-22T01:32:31;12.30;99.90
13310;DHT22;6723;48.256;16.402;2024-03-22T01:34:57;12.40;99.90
13310;DHT22;6723;48.256;16.402;2024-03-22T01:37:23;12.30;99.90
13310;DHT22;6723;48.256;16.402;2024-03-22T01:39:49;12.40;99.90
13310;DHT22;6723;48.256;16.402;2024-03-22T01:42:14;12.30;99.90
13310;DHT22;6723;48.256;16.402;2024-03-22T01:44:41;12.30;99.90
13310;DHT22;6723;48.256;16.402;2024-03-22T01:47:07;12.40;99.90
13310;DHT22;6723;48.256;16.402;2024-03-22T01:49:33;12.40;99.90
13310;DHT22;6723;48.256;16.402;2024-03-22T01:51:59;12.40;99.90
13310;DHT22;6723;48.256;16.402;2024-03-22T01:54:25;12.30;99.90
13310;DHT22;6723;48.256;16.402;2024-03-22T01:56:51;12.40;99.90
13310;DHT22;6723;48.256;16.402;2024-03-22T01:59:17;12.40;99.90
13310;DHT22;6723;48.256;16.402;2024-03-22T02:01:43;12.40;99.90
13310;DHT22;6723;48.256;16.402;2024-03-22T02:04:10;12.40;99.90
13310;DHT22;6723;48.256;16.402;2024-03-22T02:06:35;12.40;99.90
13310;DHT22;6723;48.256;16.402;2024-03-22T02:09:01;12.40;99.90
13310;DHT22;6723;48.256;16.402;2024-03-22T02:11:30;12.40;99.90
13310;DHT22;6723;48.256;16.402;2024-03-22T02:13:56;12.50;99.90
13310;DHT22;6723;48.256;16.402;2024-03-22T02:16:22;12.40;99.90
13310;DHT22;6723;48.256;16.402;2024-03-22T02:18:48;12.40;99.90
13310;DHT22;6723;48.256;16.402;2024-03-22T02:21:14;12.40;99.90
13310;DHT22;6723;48.256;16.402;2024-03-22T02:23:40;12.50;99.90
13310;DHT22;6723;48.256;16.402;2024-03-22T02:26:07;12.40;99.90
13310;DHT22;6723;48.256;16.402;2024-03-22T02:28:34;12.50;99.90
13310;DHT22;6723;48.256;16.402;2024-03-22T02:31:02;12.40;99.90
13310;DHT22;6723;48.256;16.402;2024-03-22T02:33:28;12.40;99.90
13310;DHT22;6723;48.256;16.402;2024-03-22T02:35:57;12.30;99.90
13310;DHT22;6723;48.256;16.402;2024-03-22T02:38:24;12.20;99.90
13310;DHT22;6723;48.256;16.402;2024-03-22T02:40:51;12.10;99.90
13310;DHT22;6723;48.256;16.402;2024-03-22T02:43:18;12.10;99.90
13310;DHT22;6723;48.256;16.402;2024-03-22T02:45:44;12.10;99.90
13310;DHT22;6723;48.256;16.402;2024-03-22T02:48:10;12.20;99.90
13310;DHT22;6723;48.256;16.402;2024-03-22T02:50:36;12.10;99.90
13310;DHT22;6723;48.256;16.402;2024-03-22T02:53:03;12.10;99.90
13310;DHT22;6723;48.256;16.402;2024-03-22T02:55:30;12.10;99.90
13310;DHT22;6723;48.256;16.402;2024-03-22T02:57:58;12.10;99.90
13310;DHT22;6723;48.256;16.402;2024-03-22T03:00:24;12.20;99.90
13310;DHT22;6723;48.256;16.402;2024-03-22T03:02:50;12.20;99.90
13310;DHT22;6723;48.256;16.402;2024-03-22T03:05:16;12.30;99.90
13310;DHT22;6723;48.256;16.402;2024-03-22T03:07:42;12.30;99.90
13310;DHT22;6723;48.256;16.402;2024-03-22T03:10:08;12.20;99.90
13310;DHT22;6723;48.256;16.402;2024-03-22T03:12:34;12.20;99.90
13310;DHT22;6723;48.256;16.402;2024-03-22T03:14:59;12.20;99.90
13310;DHT22;6723;48.256;16.402;2024-03-22T03:17:25;12.20;99.90
13310;DHT22;6723;48.256;16.402;2024-03-22T03:19:51;12.20;99.90
13310;DHT22;6723;48.256;16.402;2024-03-22T03:22:17;12.20;99.90
13310;DHT22;6723;48.256;16.402;2024-03-22T03:24:44;12.20;99.90
13310;DHT22;6723;48.256;16.402;2024-03-22T03:27:10;12.20;99.90
13310;DHT22;6723;48.256;16.402;2024-03-22T03:29:36;12.10;99.90
13310;DHT22;6723;48.256;16.402;2024-03-22T03:32:02;12.10;99.90
13310;DHT22;6723;48.256;16.402;2024-03-22T03:34:28;12.10;99.90
13310;DHT22;6723;48.256;16.402;2024-03-22T03:36:54;12.10;99.90
13310;DHT22;6723;48.256;16.402;2024-03-22T03:39:20;12.10;99.90
13310;DHT22;6723;48.256;16.402;2024-03-22T03:41:46;12.00;99.90
13310;DHT22;6723;48.256;16.402;2024-03-22T03:44:12;12.00;99.90
13310;DHT22;6723;48.256;16.402;2024-03-22T03:46:38;12.00;99.90
13310;DHT22;6723;48.256;16.402;2024-03-22T03:49:03;12.00;99.90
13310;DHT22;6723;48.256;16.402;2024-03-22T03:51:29;12.00;99.90
13310;DHT22;6723;48.256;16.402;2024-03-22T03:53:55;12.00;99.90
13310;DHT22;6723;48.256;16.402;2024-03-22T03:56:21;12.00;99.90
13310;DHT22;6723;48.256;16.402;2024-03-22T03:58:47;12.00;99.90
13310;DHT22;6723;48.256;16.402;2024-03-22T04:01:13;12.00;99.90
13310;DHT22;6723;48.256;16.402;2024-03-22T04:03:38;12.00;99.90
13310;DHT22;6723;48.256;16.402;2024-03-22T04:06:04;12.00;99.90
13310;DHT22;6723;48.256;16.402;2024-03-22T04:08:32;12.00;99.90
13310;DHT22;6723;48.256;16.402;2024-03-22T04:10:58;12.00;99.90
13310;DHT22;6723;48.256;16.402;2024-03-22T04:13:24;12.00;99.90
13310;DHT22;6723;48.256;16.402;2024-03-22T04:15:51;12.00;99.90
13310;DHT22;6723;48.256;16.402;2024-03-22T04:18:17;12.00;99.90
13310;DHT22;6723;48.256;16.402;2024-03-22T04:20:43;12.00;99.90
13310;DHT22;6723;48.256;16.402;2024-03-22T04:23:10;12.00;99.90
13310;DHT22;6723;48.256;16.402;2024-03-22T04:25:35;12.00;99.90
13310;DHT22;6723;48.256;16.402;2024-03-22T04:28:01;12.00;99.90
13310;DHT22;6723;48.256;16.402;2024-03-22T04:30:27;12.00;99.90
13310;DHT22;6723;48.256;16.402;2024-03-22T04:32:53;11.90;99.90
13310;DHT22;6723;48.256;16.402;2024-03-22T04:35:18;11.90;99.90
13310;DHT22;6723;48.256;16.402;2024-03-22T04:37:44;11.90;99.90
13310;DHT22;6723;48.256;16.402;2024-03-22T04:40:11;11.90;99.90
13310;DHT22;6723;48.256;16.402;2024-03-22T04:42:39;11.90;99.90
13310;DHT22;6723;48.256;16.402;2024-03-22T04:45:05;11.80;99.90
13310;DHT22;6723;48.256;16.402;2024-03-22T04:47:34;11.90;99.90
13310;DHT22;6723;48.256;16.402;2024-03-22T04:49:59;11.90;99.90
13310;DHT22;6723;48.256;16.402;2024-03-22T04:52:25;11.90;99.90
13310;DHT22;6723;48.256;16.402;2024-03-22T04:54:51;11.90;99.90
13310;DHT22;6723;48.256;16.402;2024-03-22T04:57:17;11.90;99.90
13310;DHT22;6723;48.256;16.402;2024-03-22T04:59:45;11.80;99.90
13310;DHT22;6723;48.256;16.402;2024-03-22T05:02:11;11.90;99.90
13310;DHT22;6723;48.256;16.402;2024-03-22T05:04:37;11.90;99.90
13310;DHT22;6723;48.256;16.402;2024-03-22T05:07:03;11.90;99.90
13310;DHT22;6723;48.256;16.402;2024-03-22T05:09:29;11.90;99.90
13310;DHT22;6723;48.256;16.402;2024-03-22T05:11:57;11.80;99.90
13310;DHT22;6723;48.256;16.402;2024-03-22T05:14:23;11.80;99.90
13310;DHT22;6723;48.256;16.402;2024-03-22T05:16:49;11.80;99.90
13310;DHT22;6723;48.256;16.402;2024-03-22T05:19:15;11.80;99.90
13310;DHT22;6723;48.256;16.402;2024-03-22T05:21:40;11.80;99.90
13310;DHT22;6723;48.256;16.402;2024-03-22T05:24:06;11.80;99.90
13310;DHT22;6723;48.256;16.402;2024-03-22T05:26:32;11.80;99.90
13310;DHT22;6723;48.256;16.402;2024-03-22T05:29:02;11.70;99.90
13310;DHT22;6723;48.256;16.402;2024-03-22T05:31:28;11.70;99.90
13310;DHT22;6723;48.256;16.402;2024-03-22T05:33:54;11.70;99.90
13310;DHT22;6723;48.256;16.402;2024-03-22T05:36:20;11.70;99.90
13310;DHT22;6723;48.256;16.402;2024-03-22T05:38:46;11.60;99.90
13310;DHT22;6723;48.256;16.402;2024-03-22T05:41:12;11.70;99.90
13310;DHT22;6723;48.256;16.402;2024-03-22T05:43:37;11.70;99.90
13310;DHT22;6723;48.256;16.402;2024-03-22T05:46:03;11.70;99.90
13310;DHT22;6723;48.256;16.402;2024-03-22T05:48:29;11.70;99.90
13310;DHT22;6723;48.256;16.402;2024-03-22T05:50:55;11.80;99.90
13310;DHT22;6723;48.256;16.402;2024-03-22T05:53:21;11.80;99.90
13310;DHT22;6723;48.256;16.402;2024-03-22T05:55:46;11.90;99.90
13310;DHT22;6723;48.256;16.402;2024-03-22T05:58:12;12.00;99.90
13310;DHT22;6723;48.256;16.402;2024-03-22T06:00:38;12.10;99.90
13310;DHT22;6723;48.256;16.402;2024-03-22T06:03:04;12.10;99.90
13310;DHT22;6723;48.256;16.402;2024-03-22T06:05:30;12.10;99.90
13310;DHT22;6723;48.256;16.402;2024-03-22T06:07:56;12.20;99.90
13310;DHT22;6723;48.256;16.402;2024-03-22T06:10:22;12.30;99.90
13310;DHT22;6723;48.256;16.402;2024-03-22T06:12:47;12.20;99.90
13310;DHT22;6723;48.256;16.402;2024-03-22T06:15:13;12.40;99.90
13310;DHT22;6723;48.256;16.402;2024-03-22T06:17:40;12.30;99.90
13310;DHT22;6723;48.256;16.402;2024-03-22T06:20:07;12.20;99.90
13310;DHT22;6723;48.256;16.402;2024-03-22T06:22:35;12.20;99.90
13310;DHT22;6723;48.256;16.402;2024-03-22T06:25:01;12.30;99.90
13310;DHT22;6723;48.256;16.402;2024-03-22T06:27:27;12.40;99.90
13310;DHT22;6723;48.256;16.402;2024-03-22T06:29:53;12.40;99.90
13310;DHT22;6723;48.256;16.402;2024-03-22T06:32:19;12.40;99.90
13310;DHT22;6723;48.256;16.402;2024-03-22T06:34:44;12.40;99.90
13310;DHT22;6723;48.256;16.402;2024-03-22T06:37:10;12.40;99.90
13310;DHT22;6723;48.256;16.402;2024-03-22T06:39:36;12.40;99.90
13310;DHT22;6723;48.256;16.402;2024-03-22T06:42:02;12.40;99.90
13310;DHT22;6723;48.256;16.402;2024-03-22T06:44:28;12.40;99.90
13310;DHT22;6723;48.256;16.402;2024-03-22T06:46:54;12.50;99.90
13310;DHT22;6723;48.256;16.402;2024-03-22T06:49:20;12.50;99.90
13310;DHT22;6723;48.256;16.402;2024-03-22T06:51:46;12.60;99.90
13310;DHT22;6723;48.256;16.402;2024-03-22T06:54:12;12.60;99.90
13310;DHT22;6723;48.256;16.402;2024-03-22T06:56:38;12.70;99.90
13310;DHT22;6723;48.256;16.402;2024-03-22T06:59:04;12.80;99.90
13310;DHT22;6723;48.256;16.402;2024-03-22T07:01:30;12.90;99.90
13310;DHT22;6723;48.256;16.402;2024-03-22T07:03:56;13.00;99.90
13310;DHT22;6723;48.256;16.402;2024-03-22T07:06:22;13.10;99.90
13310;DHT22;6723;48.256;16.402;2024-03-22T07:08:47;13.30;99.90
13310;DHT22;6723;48.256;16.402;2024-03-22T07:11:13;13.30;99.90
13310;DHT22;6723;48.256;16.402;2024-03-22T07:13:39;13.40;99.90
13310;DHT22;6723;48.256;16.402;2024-03-22T07:16:05;13.50;99.90
13310;DHT22;6723;48.256;16.402;2024-03-22T07:18:31;13.60;99.90
13310;DHT22;6723;48.256;16.402;2024-03-22T07:20:57;13.60;99.90
13310;DHT22;6723;48.256;16.402;2024-03-22T07:23:27;13.70;99.90
13310;DHT22;6723;48.256;16.402;2024-03-22T07:25:53;13.80;99.90
13310;DHT22;6723;48.256;16.402;2024-03-22T07:28:19;13.70;99.90
13310;DHT22;6723;48.256;16.402;2024-03-22T07:30:45;13.60;99.90
13310;DHT22;6723;48.256;16.402;2024-03-22T07:33:11;13.70;99.90
13310;DHT22;6723;48.256;16.402;2024-03-22T07:35:44;13.80;99.90
13310;DHT22;6723;48.256;16.402;2024-03-22T07:38:10;14.00;99.90
13310;DHT22;6723;48.256;16.402;2024-03-22T07:40:36;14.10;99.90
13310;DHT22;6723;48.256;16.402;2024-03-22T07:43:02;14.10;99.90
13310;DHT22;6723;48.256;16.402;2024-03-22T07:45:37;14.00;99.90
13310;DHT22;6723;48.256;16.402;2024-03-22T07:48:03;13.90;99.90
13310;DHT22;6723;48.256;16.402;2024-03-22T07:50:29;14.10;99.90
13310;DHT22;6723;48.256;16.402;2024-03-22T07:52:55;14.20;99.90
13310;DHT22;6723;48.256;16.402;2024-03-22T07:55:22;14.20;99.90
13310;DHT22;6723;48.256;16.402;2024-03-22T07:57:47;14.10;99.90
13310;DHT22;6723;48.256;16.402;2024-03-22T08:00:16;14.30;99.90
13310;DHT22;6723;48.256;16.402;2024-03-22T08:02:42;14.30;99.90
13310;DHT22;6723;48.256;16.402;2024-03-22T08:05:08;14.20;99.90
13310;DHT22;6723;48.256;16.402;2024-03-22T08:07:33;14.40;99.90
13310;DHT22;6723;48.256;16.402;2024-03-22T08:09:59;14.50;99.90
13310;DHT22;6723;48.256;16.402;2024-03-22T08:12:27;14.50;99.90
13310;DHT22;6723;48.256;16.402;2024-03-22T08:14:53;14.60;99.90
13310;DHT22;6723;48.256;16.402;2024-03-22T08:17:19;14.80;99.90
13310;DHT22;6723;48.256;16.402;2024-03-22T08:19:45;14.80;99.30
13310;DHT22;6723;48.256;16.402;2024-03-22T08:22:11;14.80;99.30
13310;DHT22;6723;48.256;16.402;2024-03-22T08:24:36;14.70;98.80
13310;DHT22;6723;48.256;16.402;2024-03-22T08:27:03;14.60;98.30
13310;DHT22;6723;48.256;16.402;2024-03-22T08:29:29;14.60;98.30
13310;DHT22;6723;48.256;16.402;2024-03-22T08:31:55;14.60;98.20
13310;DHT22;6723;48.256;16.402;2024-03-22T08:34:21;14.70;98.30
13310;DHT22;6723;48.256;16.402;2024-03-22T08:36:47;14.90;98.00
13310;DHT22;6723;48.256;16.402;2024-03-22T08:39:13;14.80;97.90
13310;DHT22;6723;48.256;16.402;2024-03-22T08:41:39;15.10;97.70
13310;DHT22;6723;48.256;16.402;2024-03-22T08:44:04;15.10;97.70
13310;DHT22;6723;48.256;16.402;2024-03-22T08:46:30;15.10;97.50
13310;DHT22;6723;48.256;16.402;2024-03-22T08:48:57;15.00;97.50
13310;DHT22;6723;48.256;16.402;2024-03-22T08:51:23;15.00;97.80
13310;DHT22;6723;48.256;16.402;2024-03-22T08:53:49;15.00;97.70
13310;DHT22;6723;48.256;16.402;2024-03-22T08:56:18;14.90;98.00
13310;DHT22;6723;48.256;16.402;2024-03-22T08:58:46;15.00;97.70
13310;DHT22;6723;48.256;16.402;2024-03-22T09:01:12;15.10;97.90
13310;DHT22;6723;48.256;16.402;2024-03-22T09:03:38;15.30;97.70
13310;DHT22;6723;48.256;16.402;2024-03-22T09:06:04;15.10;97.60
13310;DHT22;6723;48.256;16.402;2024-03-22T09:08:33;15.50;97.60
13310;DHT22;6723;48.256;16.402;2024-03-22T09:10:59;15.30;97.40
13310;DHT22;6723;48.256;16.402;2024-03-22T09:13:25;15.50;97.50
13310;DHT22;6723;48.256;16.402;2024-03-22T09:15:57;15.60;97.40
13310;DHT22;6723;48.256;16.402;2024-03-22T09:18:23;15.70;96.90
13310;DHT22;6723;48.256;16.402;2024-03-22T09:20:54;15.70;96.90
13310;DHT22;6723;48.256;16.402;2024-03-22T09:23:22;15.60;97.10
13310;DHT22;6723;48.256;16.402;2024-03-22T09:25:48;16.00;96.70
13310;DHT22;6723;48.256;16.402;2024-03-22T09:28:14;15.90;96.50
13310;DHT22;6723;48.256;16.402;2024-03-22T09:30:40;15.80;96.60
13310;DHT22;6723;48.256;16.402;2024-03-22T09:33:07;15.90;96.40
13310;DHT22;6723;48.256;16.402;2024-03-22T09:35:34;15.90;96.30
13310;DHT22;6723;48.256;16.402;2024-03-22T09:37:59;16.10;96.40
13310;DHT22;6723;48.256;16.402;2024-03-22T09:40:25;16.50;96.10
13310;DHT22;6723;48.256;16.402;2024-03-22T09:42:53;16.70;95.70
13310;DHT22;6723;48.256;16.402;2024-03-22T09:45:19;16.90;95.30
13310;DHT22;6723;48.256;16.402;2024-03-22T09:47:49;16.90;95.00
13310;DHT22;6723;48.256;16.402;2024-03-22T09:50:18;16.90;94.60
13310;DHT22;6723;48.256;16.402;2024-03-22T09:52:45;16.90;94.60
13310;DHT22;6723;48.256;16.402;2024-03-22T09:55:11;17.40;94.60
13310;DHT22;6723;48.256;16.402;2024-03-22T09:57:39;17.30;93.70
13310;DHT22;6723;48.256;16.402;2024-03-22T10:00:07;17.60;93.50
13310;DHT22;6723;48.256;16.402;2024-03-22T10:02:34;18.00;92.90
13310;DHT22;6723;48.256;16.402;2024-03-22T10:05:00;18.40;92.70
13310;DHT22;6723;48.256;16.402;2024-03-22T10:07:28;18.40;92.30
13310;DHT22;6723;48.256;16.402;2024-03-22T10:09:58;18.50;91.70
13310;DHT22;6723;48.256;16.402;2024-03-22T10:12:24;18.40;91.30
13310;DHT22;6723;48.256;16.402;2024-03-22T10:14:53;18.00;90.90
13310;DHT22;6723;48.256;16.402;2024-03-22T10:17:19;18.00;91.10
13310;DHT22;6723;48.256;16.402;2024-03-22T10:19:45;17.90;90.70
13310;DHT22;6723;48.256;16.402;2024-03-22T10:22:11;18.10;90.70
13310;DHT22;6723;48.256;16.402;2024-03-22T10:24:36;18.20;90.30
13310;DHT22;6723;48.256;16.402;2024-03-22T10:27:02;18.40;90.70
13310;DHT22;6723;48.256;16.402;2024-03-22T10:29:28;18.30;89.70
13310;DHT22;6723;48.256;16.402;2024-03-22T10:31:55;18.30;89.50
13310;DHT22;6723;48.256;16.402;2024-03-22T10:34:22;18.50;89.00
13310;DHT22;6723;48.256;16.402;2024-03-22T10:36:49;18.70;88.30
13310;DHT22;6723;48.256;16.402;2024-03-22T10:39:17;18.70;88.20
13310;DHT22;6723;48.256;16.402;2024-03-22T10:41:46;18.60;88.30
13310;DHT22;6723;48.256;16.402;2024-03-22T10:44:13;18.30;88.30
13310;DHT22;6723;48.256;16.402;2024-03-22T10:46:45;18.20;89.10
13310;DHT22;6723;48.256;16.402;2024-03-22T10:49:21;18.40;88.60
13310;DHT22;6723;48.256;16.402;2024-03-22T10:51:54;19.30;88.60
13310;DHT22;6723;48.256;16.402;2024-03-22T10:54:28;19.00;87.90
13310;DHT22;6723;48.256;16.402;2024-03-22T10:56:56;18.60;87.40
13310;DHT22;6723;48.256;16.402;2024-03-22T10:59:23;18.70;88.20
13310;DHT22;6723;48.256;16.402;2024-03-22T11:01:49;18.70;87.80
13310;DHT22;6723;48.256;16.402;2024-03-22T11:04:30;18.90;88.00
13310;DHT22;6723;48.256;16.402;2024-03-22T11:06:57;19.40;87.60
13310;DHT22;6723;48.256;16.402;2024-03-22T11:09:26;19.80;87.50
13310;DHT22;6723;48.256;16.402;2024-03-22T11:11:54;19.50;86.10
13310;DHT22;6723;48.256;16.402;2024-03-22T11:14:20;19.70;85.60
13310;DHT22;6723;48.256;16.402;2024-03-22T11:16:52;19.60;84.70
13310;DHT22;6723;48.256;16.402;2024-03-22T11:19:21;20.10;85.20
13310;DHT22;6723;48.256;16.402;2024-03-22T11:21:46;20.20;83.20
13310;DHT22;6723;48.256;16.402;2024-03-22T11:24:12;20.00;83.50
13310;DHT22;6723;48.256;16.402;2024-03-22T11:26:38;19.90;84.00
13310;DHT22;6723;48.256;16.402;2024-03-22T11:29:04;20.20;83.40
13310;DHT22;6723;48.256;16.402;2024-03-22T11:31:30;19.60;83.70
13310;DHT22;6723;48.256;16.402;2024-03-22T11:33:56;20.10;84.70
13310;DHT22;6723;48.256;16.402;2024-03-22T11:36:23;20.20;82.10
13310;DHT22;6723;48.256;16.402;2024-03-22T11:38:49;19.90;83.70
13310;DHT22;6723;48.256;16.402;2024-03-22T11:41:24;19.80;82.20
13310;DHT22;6723;48.256;16.402;2024-03-22T11:43:52;20.70;83.10
13310;DHT22;6723;48.256;16.402;2024-03-22T11:46:18;21.20;82.10
13310;DHT22;6723;48.256;16.402;2024-03-22T11:48:53;21.30;79.90
13310;DHT22;6723;48.256;16.402;2024-03-22T11:51:20;21.70;79.20
13310;DHT22;6723;48.256;16.402;2024-03-22T11:53:52;21.40;77.20
13310;DHT22;6723;48.256;16.402;2024-03-22T11:56:21;21.90;78.50
13310;DHT22;6723;48.256;16.402;2024-03-22T11:58:48;21.90;76.00
13310;DHT22;6723;48.256;16.402;2024-03-22T12:01:15;21.30;76.20
13310;DHT22;6723;48.256;16.402;2024-03-22T12:03:44;21.60;76.60
13310;DHT22;6723;48.256;16.402;2024-03-22T12:06:13;22.40;76.90
13310;DHT22;6723;48.256;16.402;2024-03-22T12:08:40;22.20;75.20
13310;DHT22;6723;48.256;16.402;2024-03-22T12:11:10;22.40;75.10
13310;DHT22;6723;48.256;16.402;2024-03-22T12:13:37;21.90;73.70
13310;DHT22;6723;48.256;16.402;2024-03-22T12:16:03;21.70;74.70
13310;DHT22;6723;48.256;16.402;2024-03-22T12:18:29;21.70;73.40
13310;DHT22;6723;48.256;16.402;2024-03-22T12:20:55;21.60;74.30
13310;DHT22;6723;48.256;16.402;2024-03-22T12:23:21;20.80;74.20
13310;DHT22;6723;48.256;16.402;2024-03-22T12:25:47;21.20;74.60
13310;DHT22;6723;48.256;16.402;2024-03-22T12:28:12;21.40;73.40
13310;DHT22;6723;48.256;16.402;2024-03-22T12:30:40;20.60;74.20
13310;DHT22;6723;48.256;16.402;2024-03-22T12:33:05;20.40;75.20
13310;DHT22;6723;48.256;16.402;2024-03-22T12:35:39;20.20;75.10
13310;DHT22;6723;48.256;16.402;2024-03-22T12:38:05;20.40;76.20
13310;DHT22;6723;48.256;16.402;2024-03-22T12:40:31;20.20;76.20
13310;DHT22;6723;48.256;16.402;2024-03-22T12:42:59;20.30;75.60
13310;DHT22;6723;48.256;16.402;2024-03-22T12:45:25;20.30;76.00
13310;DHT22;6723;48.256;16.402;2024-03-22T12:47:51;20.70;75.90
13310;DHT22;6723;48.256;16.402;2024-03-22T12:50:21;20.00;75.80
13310;DHT22;6723;48.256;16.402;2024-03-22T12:52:46;20.00;76.90
13310;DHT22;6723;48.256;16.402;2024-03-22T12:55:15;20.00;76.90
13310;DHT22;6723;48.256;16.402;2024-03-22T12:57:41;19.90;76.80
13310;DHT22;6723;48.256;16.402;2024-03-22T13:00:07;20.00;77.30
13310;DHT22;6723;48.256;16.402;2024-03-22T13:02:41;20.20;76.90
13310;DHT22;6723;48.256;16.402;2024-03-22T13:05:07;20.00;76.00
13310;DHT22;6723;48.256;16.402;2024-03-22T13:07:34;19.80;76.90
13310;DHT22;6723;48.256;16.402;2024-03-22T13:10:00;19.60;76.20
13310;DHT22;6723;48.256;16.402;2024-03-22T13:12:26;19.70;76.80
13310;DHT22;6723;48.256;16.402;2024-03-22T13:14:53;19.70;76.30
13310;DHT22;6723;48.256;16.402;2024-03-22T13:17:19;19.50;77.00
13310;DHT22;6723;48.256;16.402;2024-03-22T13:19:46;19.90;77.10
13310;DHT22;6723;48.256;16.402;2024-03-22T13:22:12;20.40;77.50
13310;DHT22;6723;48.256;16.402;2024-03-22T13:24:38;21.00;76.80
13310;DHT22;6723;48.256;16.402;2024-03-22T13:27:04;21.40;75.40
13310;DHT22;6723;48.256;16.402;2024-03-22T13:29:30;20.70;74.70
13310;DHT22;6723;48.256;16.402;2024-03-22T13:31:55;20.70;74.40
13310;DHT22;6723;48.256;16.402;2024-03-22T13:34:21;20.80;75.00
13310;DHT22;6723;48.256;16.402;2024-03-22T13:36:47;20.40;74.70
13310;DHT22;6723;48.256;16.402;2024-03-22T13:39:13;20.50;75.70
13310;DHT22;6723;48.256;16.402;2024-03-22T13:41:42;20.30;75.20
13310;DHT22;6723;48.256;16.402;2024-03-22T13:44:07;20.40;75.20
13310;DHT22;6723;48.256;16.402;2024-03-22T13:46:34;20.30;75.20
13310;DHT22;6723;48.256;16.402;2024-03-22T13:49:03;19.80;75.80
13310;DHT22;6723;48.256;16.402;2024-03-22T13:51:30;19.70;76.20
13310;DHT22;6723;48.256;16.402;2024-03-22T13:53:57;19.80;76.40
13310;DHT22;6723;48.256;16.402;2024-03-22T13:56:22;19.80;76.50
13310;DHT22;6723;48.256;16.402;2024-03-22T13:58:48;19.60;76.90
13310;DHT22;6723;48.256;16.402;2024-03-22T14:01:14;19.90;77.00
13310;DHT22;6723;48.256;16.402;2024-03-22T14:03:40;19.80;76.30
13310;DHT22;6723;48.256;16.402;2024-03-22T14:06:06;19.50;76.70
13310;DHT22;6723;48.256;16.402;2024-03-22T14:08:32;19.50;76.80
13310;DHT22;6723;48.256;16.402;2024-03-22T14:10:58;19.40;76.50
13310;DHT22;6723;48.256;16.402;2024-03-22T14:13:23;19.20;76.90
13310;DHT22;6723;48.256;16.402;2024-03-22T14:15:49;19.20;76.80
13310;DHT22;6723;48.256;16.402;2024-03-22T14:18:15;19.20;77.40
13310;DHT22;6723;48.256;16.402;2024-03-22T14:20:41;19.40;77.60
13310;DHT22;6723;48.256;16.402;2024-03-22T14:23:07;19.50;77.10
13310;DHT22;6723;48.256;16.402;2024-03-22T14:25:33;19.40;76.90
13310;DHT22;6723;48.256;16.402;2024-03-22T14:27:58;19.40;76.40
13310;DHT22;6723;48.256;16.402;2024-03-22T14:30:24;19.40;76.70
13310;DHT22;6723;48.256;16.402;2024-03-22T14:32:50;19.40;76.00
13310;DHT22;6723;48.256;16.402;2024-03-22T14:35:18;19.20;75.80
13310;DHT22;6723;48.256;16.402;2024-03-22T14:37:44;19.30;76.90
13310;DHT22;6723;48.256;16.402;2024-03-22T14:40:10;19.40;76.70
13310;DHT22;6723;48.256;16.402;2024-03-22T14:42:37;19.50;77.10
13310;DHT22;6723;48.256;16.402;2024-03-22T14:45:03;19.60;76.40
13310;DHT22;6723;48.256;16.402;2024-03-22T14:47:29;19.70;77.20
13310;DHT22;6723;48.256;16.402;2024-03-22T14:49:55;19.50;76.40
13310;DHT22;6723;48.256;16.402;2024-03-22T14:52:21;19.40;76.10
13310;DHT22;6723;48.256;16.402;2024-03-22T14:54:47;19.30;76.20
13310;DHT22;6723;48.256;16.402;2024-03-22T14:57:13;19.60;76.70
13310;DHT22;6723;48.256;16.402;2024-03-22T14:59:39;19.50;75.90
13310;DHT22;6723;48.256;16.402;2024-03-22T15:02:05;19.30;75.10
13310;DHT22;6723;48.256;16.402;2024-03-22T15:04:31;19.40;75.30
13310;DHT22;6723;48.256;16.402;2024-03-22T15:06:57;19.20;75.80
13310;DHT22;6723;48.256;16.402;2024-03-22T15:09:23;19.10;76.30
13310;DHT22;6723;48.256;16.402;2024-03-22T15:11:50;18.90;75.50
13310;DHT22;6723;48.256;16.402;2024-03-22T15:14:16;18.90;75.80
13310;DHT22;6723;48.256;16.402;2024-03-22T15:16:42;18.80;75.80
13310;DHT22;6723;48.256;16.402;2024-03-22T15:19:09;18.90;76.20
13310;DHT22;6723;48.256;16.402;2024-03-22T15:21:36;18.90;76.10
13310;DHT22;6723;48.256;16.402;2024-03-22T15:24:02;18.80;75.90
13310;DHT22;6723;48.256;16.402;2024-03-22T15:26:28;18.80;75.00